Time;durP1;ratioP1;P1;durP2;ratioP2;P2;SDS_P1;SDS_P2;PMS_P1;PMS_P2;Temp;Humidity;BMP_temperature;BMP_pressure;BME280_temperature;BME280_humidity;BME280_pressure;Samples;Min_cycle;Max_cycle;Signal;HPM_P1;HPM_P2
2021/01/17 00:00:00;;;;;;;43.07;24.13;;;-0.50;99.90;;;;;;5052179;28;20487;-65
2021/01/17 00:02:26;;;;;;;43.53;25.00;;;-0.50;99.90;;;;;;5051951;28;20779;-66
2021/01/17 00:04:53;;;;;;;42.57;23.87;;;-0.50;99.90;;;;;;5051885;28;20199;-66
2021/01/17 00:07:18;;;;;;;40.67;23.03;;;-0.40;99.90;;;;;;5051943;28;20752;-66
2021/01/17 00:09:44;;;;;;;42.73;23.63;;;-0.40;99.90;;;;;;5051802;28;20413;-66
2021/01/17 00:12:10;;;;;;;42.43;25.10;;;-0.40;99.90;;;;;;5033717;28;20176;-66
2021/01/17 00:14:36;;;;;;;47.07;25.63;;;-0.50;99.90;;;;;;5051633;28;20186;-68
2021/01/17 00:17:02;;;;;;;42.57;24.27;;;-0.40;99.90;;;;;;5046091;28;20175;-66
2021/01/17 00:19:28;;;;;;;44.30;24.63;;;-0.40;99.90;;;;;;5051955;28;20410;-67
2021/01/17 00:21:54;;;;;;;43.20;24.63;;;-0.40;99.90;;;;;;5031364;28;20417;-68
2021/01/17 00:24:20;;;;;;;46.93;25.70;;;-0.40;99.90;;;;;;5051604;28;20451;-67
2021/01/17 00:26:45;;;;;;;46.13;24.70;;;-0.40;99.90;;;;;;5051608;28;20175;-66
2021/01/17 00:29:11;;;;;;;42.97;23.67;;;-0.40;99.90;;;;;;5033516;28;20180;-65
2021/01/17 00:31:37;;;;;;;43.87;24.13;;;-0.30;99.90;;;;;;5050897;28;20178;-66
2021/01/17 00:34:03;;;;;;;43.00;24.57;;;-0.40;99.90;;;;;;5042496;28;20174;-66
2021/01/17 00:36:29;;;;;;;40.50;23.73;;;-0.30;99.90;;;;;;5051401;28;20171;-66
2021/01/17 00:38:55;;;;;;;45.90;25.67;;;-0.30;99.90;;;;;;5051463;28;20969;-66
2021/01/17 00:41:30;;;;;;;45.27;24.87;;;-0.30;99.90;;;;;;5051252;28;20171;-67
2021/01/17 00:43:55;;;;;;;43.40;25.23;;;-0.30;99.90;;;;;;5045266;28;20301;-66
2021/01/17 00:46:21;;;;;;;45.00;24.87;;;-0.20;99.90;;;;;;5032759;28;20540;-66
2021/01/17 00:48:47;;;;;;;42.50;24.40;;;-0.20;99.90;;;;;;5051195;28;20246;-66
2021/01/17 00:51:12;;;;;;;47.60;25.47;;;-0.20;99.90;;;;;;5051209;28;20174;-66
2021/01/17 00:53:38;;;;;;;46.13;26.57;;;-0.20;99.90;;;;;;5041320;28;20179;-67
2021/01/17 00:56:03;;;;;;;45.43;25.83;;;-0.20;99.90;;;;;;5048391;28;20207;-67
2021/01/17 00:58:29;;;;;;;45.87;25.20;;;-0.10;99.90;;;;;;5048751;28;20629;-68
2021/01/17 01:00:55;;;;;;;42.43;25.20;;;0.00;99.90;;;;;;5032926;28;20182;-65
2021/01/17 01:03:20;;;;;;;46.93;25.93;;;-0.10;99.90;;;;;;5050254;28;20171;-65
2021/01/17 01:05:46;;;;;;;48.40;26.33;;;-0.20;99.90;;;;;;5050830;28;20202;-66
2021/01/17 01:08:11;;;;;;;47.70;25.80;;;-0.20;99.90;;;;;;5048059;28;20229;-67
2021/01/17 01:10:37;;;;;;;41.63;25.33;;;-0.30;99.90;;;;;;5050973;28;20171;-66
2021/01/17 01:13:03;;;;;;;46.50;24.97;;;-0.30;99.90;;;;;;5051005;28;20175;-65
2021/01/17 01:15:28;;;;;;;44.70;25.87;;;-0.30;99.90;;;;;;5050919;28;20692;-64
2021/01/17 01:17:54;;;;;;;48.63;26.83;;;-0.20;99.90;;;;;;5051026;28;20199;-65
2021/01/17 01:20:20;;;;;;;45.00;25.43;;;-0.20;99.90;;;;;;5031336;28;20633;-67
2021/01/17 01:22:45;;;;;;;44.47;24.63;;;-0.20;99.90;;;;;;5031522;28;20175;-68
2021/01/17 01:25:11;;;;;;;46.53;25.30;;;-0.20;99.90;;;;;;5050732;28;20641;-68
2021/01/17 01:27:37;;;;;;;47.87;25.93;;;-0.30;99.90;;;;;;5050591;28;20167;-68
2021/01/17 01:30:04;;;;;;;47.03;25.63;;;-0.20;99.90;;;;;;5041069;28;20191;-65
2021/01/17 01:32:30;;;;;;;44.27;25.50;;;-0.30;99.90;;;;;;5049541;28;20443;-68
2021/01/17 01:34:56;;;;;;;43.70;24.73;;;-0.30;99.90;;;;;;5031549;28;20417;-64
2021/01/17 01:37:22;;;;;;;45.43;24.67;;;-0.30;99.90;;;;;;5050737;28;20178;-64
2021/01/17 01:39:49;;;;;;;43.70;24.97;;;-0.30;99.90;;;;;;5050671;28;20171;-68
2021/01/17 01:42:14;;;;;;;43.53;25.30;;;-0.40;99.90;;;;;;5044554;28;20410;-67
2021/01/17 01:44:40;;;;;;;45.60;25.30;;;-0.40;99.90;;;;;;5042549;28;20465;-69
2021/01/17 01:47:14;;;;;;;45.80;25.00;;;-0.40;99.90;;;;;;5050415;28;20175;-68
2021/01/17 01:49:41;;;;;;;43.13;24.40;;;-0.40;99.90;;;;;;5050504;28;20168;-69
2021/01/17 01:52:12;;;;;;;48.27;27.70;;;-0.40;99.90;;;;;;5050445;28;20475;-67
2021/01/17 01:54:38;;;;;;;44.53;24.23;;;-0.30;99.90;;;;;;5036977;28;20880;-68
2021/01/17 01:57:04;;;;;;;48.73;26.97;;;-0.40;99.90;;;;;;5035907;28;20446;-67
2021/01/17 01:59:32;;;;;;;47.20;25.07;;;-0.40;99.90;;;;;;5030829;28;20191;-68
2021/01/17 02:01:58;;;;;;;44.23;25.17;;;-0.40;99.90;;;;;;5030495;28;20777;-68
2021/01/17 02:04:24;;;;;;;45.43;26.07;;;-0.40;99.90;;;;;;5039909;28;20432;-68
2021/01/17 02:07:14;;;;;;;47.20;25.33;;;-0.40;99.90;;;;;;5050469;28;20410;-66
2021/01/17 02:09:41;;;;;;;46.97;24.40;;;-0.30;99.90;;;;;;5032559;28;20579;-66
2021/01/17 02:12:12;;;;;;;45.10;25.20;;;-0.30;99.90;;;;;;5050535;28;20775;-67
2021/01/17 02:14:38;;;;;;;45.30;24.67;;;-0.40;99.90;;;;;;5052207;28;20410;-68
2021/01/17 02:17:13;;;;;;;43.37;24.40;;;-0.40;99.90;;;;;;5039082;28;20429;-67
2021/01/17 02:20:02;;;;;;;42.23;22.77;;;-0.40;99.90;;;;;;5053996;28;20178;-67
2021/01/17 02:22:30;;;;;;;43.90;24.53;;;-0.60;99.90;;;;;;5047166;28;20414;-67
2021/01/17 02:25:06;;;;;;;49.70;26.03;;;-0.60;99.90;;;;;;5053725;28;20453;-67
2021/01/17 02:27:32;;;;;;;48.47;25.27;;;-0.60;99.90;;;;;;5053973;28;20427;-68
2021/01/17 02:30:10;;;;;;;51.93;27.60;;;-0.60;99.90;;;;;;5054303;28;20516;-68
2021/01/17 02:32:42;;;;;;;44.53;25.67;;;-0.50;99.90;;;;;;5053486;28;20413;-65
2021/01/17 02:35:10;;;;;;;48.67;26.93;;;-0.50;99.90;;;;;;5053808;28;20826;-67
2021/01/17 02:37:59;;;;;;;50.47;26.07;;;-0.50;99.90;;;;;;5046702;28;20900;-66
2021/01/17 02:40:41;;;;;;;42.80;24.17;;;-0.50;99.90;;;;;;5052282;28;20425;-68
2021/01/17 02:43:14;;;;;;;45.13;24.67;;;-0.40;99.90;;;;;;5038249;28;20602;-66
2021/01/17 02:45:46;;;;;;;47.97;26.43;;;-0.50;99.90;;;;;;5049572;28;20480;-68
2021/01/17 02:48:12;;;;;;;44.53;25.67;;;-0.40;99.90;;;;;;5053505;28;20893;-67
2021/01/17 02:50:38;;;;;;;46.03;26.80;;;-0.40;99.90;;;;;;5053374;28;20413;-67
2021/01/17 02:53:22;;;;;;;44.03;25.23;;;-0.30;99.90;;;;;;5053566;28;20439;-68
2021/01/17 02:55:52;;;;;;;41.37;24.20;;;-0.30;99.90;;;;;;5050950;28;20178;-67
2021/01/17 02:58:19;;;;;;;44.30;24.10;;;-0.30;99.90;;;;;;5052172;28;20462;-67
2021/01/17 03:00:46;;;;;;;45.63;25.80;;;-0.40;99.90;;;;;;5043521;28;20425;-67
2021/01/17 03:03:14;;;;;;;47.27;25.80;;;-0.40;99.90;;;;;;5053284;28;20429;-67
2021/01/17 03:05:42;;;;;;;41.53;23.43;;;-0.40;99.90;;;;;;5042938;28;20454;-68
2021/01/17 03:08:15;;;;;;;45.27;25.07;;;-0.40;99.90;;;;;;5042452;28;20422;-67
2021/01/17 03:10:40;;;;;;;45.00;25.20;;;-0.50;99.90;;;;;;5052539;28;20475;-68
2021/01/17 03:13:08;;;;;;;46.00;25.40;;;-0.40;99.90;;;;;;5052896;28;20809;-66
2021/01/17 03:15:34;;;;;;;44.77;24.80;;;-0.40;99.90;;;;;;5042404;28;20179;-67
2021/01/17 03:18:00;;;;;;;45.67;24.83;;;-0.40;99.90;;;;;;5043140;28;20494;-66
2021/01/17 03:20:26;;;;;;;45.10;25.47;;;-0.30;99.90;;;;;;5053032;28;20202;-68
2021/01/17 03:22:52;;;;;;;43.27;24.83;;;-0.30;99.90;;;;;;5053134;28;20417;-66
2021/01/17 03:25:17;;;;;;;40.80;25.53;;;-0.40;99.90;;;;;;5050884;28;20286;-68
2021/01/17 03:27:43;;;;;;;43.43;24.87;;;-0.50;99.90;;;;;;5052937;28;20732;-67
2021/01/17 03:30:09;;;;;;;43.93;24.90;;;-0.50;99.90;;;;;;5053030;28;20228;-68
2021/01/17 03:32:35;;;;;;;39.03;23.50;;;-0.60;99.90;;;;;;5035219;28;20175;-66
2021/01/17 03:35:00;;;;;;;44.93;26.37;;;-0.50;99.90;;;;;;5046715;28;20419;-66
2021/01/17 03:37:26;;;;;;;45.20;26.53;;;-0.60;99.90;;;;;;5041959;28;20186;-66
2021/01/17 03:39:52;;;;;;;45.90;25.10;;;-0.50;99.90;;;;;;5045767;28;20217;-67
2021/01/17 03:42:17;;;;;;;40.23;23.67;;;-0.50;99.90;;;;;;5051198;28;20652;-66
2021/01/17 03:44:48;;;;;;;43.37;26.30;;;-0.60;99.90;;;;;;5046697;28;20315;-67
2021/01/17 03:47:14;;;;;;;42.07;24.00;;;-0.50;99.90;;;;;;5052414;28;20171;-66
2021/01/17 03:49:40;;;;;;;43.97;24.57;;;-0.50;99.90;;;;;;5052321;28;20413;-66
2021/01/17 03:52:05;;;;;;;38.47;23.20;;;-0.50;99.90;;;;;;5042975;28;20501;-66
2021/01/17 03:54:31;;;;;;;47.37;26.70;;;-0.40;99.90;;;;;;5052362;28;20175;-68
2021/01/17 03:56:56;;;;;;;46.03;23.97;;;-0.40;99.90;;;;;;5035310;28;20179;-67
2021/01/17 03:59:23;;;;;;;42.47;23.83;;;-0.40;99.90;;;;;;5036270;28;20634;-68
2021/01/17 04:01:49;;;;;;;45.23;24.17;;;-0.40;99.90;;;;;;5033689;28;20604;-67
2021/01/17 04:04:15;;;;;;;41.87;24.00;;;-0.40;99.90;;;;;;5033130;28;20506;-68
2021/01/17 04:06:40;;;;;;;37.93;23.90;;;-0.40;99.90;;;;;;5051872;28;20211;-67
2021/01/17 04:09:07;;;;;;;45.87;26.77;;;-0.30;99.90;;;;;;5044903;28;20536;-67
2021/01/17 04:11:33;;;;;;;44.03;24.63;;;-0.30;99.90;;;;;;5039034;28;20195;-66
2021/01/17 04:13:59;;;;;;;43.40;25.83;;;-0.30;99.90;;;;;;5051707;28;20479;-67
2021/01/17 04:16:25;;;;;;;44.27;25.70;;;-0.30;99.90;;;;;;5052012;28;21050;-68
2021/01/17 04:18:50;;;;;;;40.17;23.43;;;-0.30;99.90;;;;;;5051631;28;20186;-67
2021/01/17 04:21:16;;;;;;;42.33;23.60;;;-0.40;99.90;;;;;;5035925;28;20191;-66
2021/01/17 04:23:42;;;;;;;44.73;25.73;;;-0.40;99.90;;;;;;5044479;28;20183;-67
2021/01/17 04:26:09;;;;;;;46.43;25.40;;;-0.50;99.90;;;;;;5050537;28;20199;-67
2021/01/17 04:28:35;;;;;;;44.93;25.30;;;-0.50;99.90;;;;;;5051927;28;20510;-66
2021/01/17 04:31:00;;;;;;;46.70;27.00;;;-0.50;99.90;;;;;;5051601;28;20406;-67
2021/01/17 04:33:26;;;;;;;50.63;27.40;;;-0.50;99.90;;;;;;5049287;28;20167;-66
2021/01/17 04:35:52;;;;;;;41.50;25.23;;;-0.50;99.90;;;;;;5041452;28;20171;-66
2021/01/17 04:38:17;;;;;;;51.07;27.93;;;-0.40;99.90;;;;;;5051867;28;20194;-67
2021/01/17 04:40:43;;;;;;;46.07;26.07;;;-0.50;99.90;;;;;;5046081;28;20539;-67
2021/01/17 04:43:26;;;;;;;48.60;28.17;;;-0.50;99.90;;;;;;5050905;28;20207;-68
2021/01/17 04:45:53;;;;;;;46.07;25.57;;;-0.50;99.90;;;;;;5051286;28;20727;-67
2021/01/17 04:48:20;;;;;;;48.87;27.43;;;-0.40;99.90;;;;;;5051281;28;21117;-67
2021/01/17 04:50:48;;;;;;;51.30;27.37;;;-0.40;99.90;;;;;;5051253;28;20810;-68
2021/01/17 04:53:16;;;;;;;48.63;26.57;;;-0.30;99.90;;;;;;5040189;28;20484;-68
2021/01/17 04:55:42;;;;;;;49.53;27.17;;;-0.30;99.90;;;;;;5051275;28;20475;-67
2021/01/17 04:58:15;;;;;;;45.63;25.87;;;-0.30;99.90;;;;;;5051114;28;20461;-67
2021/01/17 05:00:42;;;;;;;47.23;25.30;;;-0.30;99.90;;;;;;5049928;28;20186;-67
2021/01/17 05:03:26;;;;;;;42.20;23.73;;;-0.30;99.90;;;;;;5051151;28;20934;-67
2021/01/17 05:05:58;;;;;;;47.53;26.23;;;-0.30;99.90;;;;;;5050822;28;20464;-66
2021/01/17 05:08:26;;;;;;;47.63;25.60;;;-0.30;99.90;;;;;;5041371;28;20421;-65
2021/01/17 05:11:00;;;;;;;50.07;26.37;;;-0.40;99.90;;;;;;5051034;28;20537;-68
2021/01/17 05:13:38;;;;;;;42.83;22.23;;;-0.30;99.90;;;;;;5051206;28;20417;-66
2021/01/17 05:16:06;;;;;;;45.37;25.57;;;-0.40;99.90;;;;;;5051093;28;20771;-66
2021/01/17 05:18:32;;;;;;;40.47;23.40;;;-0.40;99.90;;;;;;5050818;28;21059;-66
2021/01/17 05:21:03;;;;;;;46.43;25.67;;;-0.40;99.90;;;;;;5040419;28;20434;-67
2021/01/17 05:23:35;;;;;;;48.03;24.93;;;-1.00;99.90;;;;;;5049713;28;20445;-66
2021/01/17 05:26:03;;;;;;;45.20;25.90;;;-0.40;99.90;;;;;;5049655;28;20449;-65
2021/01/17 05:28:31;;;;;;;45.77;26.70;;;-0.40;99.90;;;;;;5048001;28;20409;-67
2021/01/17 05:30:57;;;;;;;42.70;24.23;;;-0.30;99.90;;;;;;5050812;28;20421;-68
2021/01/17 05:33:29;;;;;;;47.10;25.27;;;-0.30;99.90;;;;;;5050575;28;20452;-68
2021/01/17 05:35:55;;;;;;;42.53;24.77;;;-0.20;99.90;;;;;;5038156;28;20509;-67
2021/01/17 05:38:21;;;;;;;38.67;23.20;;;-0.10;99.90;;;;;;5050863;28;20423;-67
2021/01/17 05:40:47;;;;;;;41.43;24.90;;;-0.10;99.90;;;;;;5050523;28;20832;-67
2021/01/17 05:43:12;;;;;;;43.13;23.87;;;-0.10;99.90;;;;;;5048509;28;20241;-67
2021/01/17 05:45:38;;;;;;;40.20;23.50;;;-0.10;99.90;;;;;;5038100;28;20206;-67
2021/01/17 05:48:08;;;;;;;39.77;22.40;;;-0.10;99.90;;;;;;5051195;28;20183;-65
2021/01/17 05:50:45;;;;;;;37.53;22.10;;;-0.10;99.90;;;;;;5052818;28;20197;-66
2021/01/17 05:53:11;;;;;;;37.80;22.00;;;-0.10;99.90;;;;;;5054709;28;20444;-66
2021/01/17 05:55:44;;;;;;;41.17;22.97;;;0.00;99.90;;;;;;5054162;28;20865;-66
2021/01/17 05:58:31;;;;;;;38.80;23.23;;;0.00;99.90;;;;;;5054410;28;20179;-67
2021/01/17 06:00:58;;;;;;;38.17;21.60;;;0.10;99.90;;;;;;5054259;28;20771;-66
2021/01/17 06:03:33;;;;;;;39.27;22.20;;;0.10;99.90;;;;;;5054312;28;20422;-66
2021/01/17 06:06:06;;;;;;;37.83;23.30;;;0.20;99.90;;;;;;5054242;28;20457;-68
2021/01/17 06:08:33;;;;;;;39.10;22.13;;;0.30;99.90;;;;;;5054353;28;20459;-68
2021/01/17 06:11:12;;;;;;;41.23;24.03;;;0.40;99.90;;;;;;5053891;28;20476;-66
2021/01/17 06:13:40;;;;;;;44.87;25.50;;;0.50;99.90;;;;;;5044425;28;20444;-66
2021/01/17 06:16:25;;;;;;;44.03;24.30;;;0.50;99.90;;;;;;5052894;28;20425;-66
2021/01/17 06:18:59;;;;;;;41.00;23.33;;;0.50;99.90;;;;;;5053686;28;20453;-66
2021/01/17 06:21:26;;;;;;;39.83;23.00;;;0.50;99.90;;;;;;5053943;28;20421;-66
2021/01/17 06:23:54;;;;;;;37.90;22.83;;;0.50;99.90;;;;;;5053614;28;20453;-68
2021/01/17 06:26:25;;;;;;;43.63;23.90;;;0.40;99.90;;;;;;5047846;28;20543;-67
2021/01/17 06:28:50;;;;;;;40.97;23.90;;;0.40;99.90;;;;;;5033673;28;20419;-67
2021/01/17 06:31:21;;;;;;;40.13;22.47;;;0.40;99.90;;;;;;5051115;28;20411;-66
2021/01/17 06:33:49;;;;;;;43.47;23.40;;;0.30;99.90;;;;;;5053714;28;20279;-66
2021/01/17 06:36:16;;;;;;;36.83;22.00;;;0.10;99.90;;;;;;5053571;28;20539;-67
2021/01/17 06:38:43;;;;;;;26.70;15.20;;;0.10;99.90;;;;;;5053759;28;20410;-68
2021/01/17 06:41:10;;;;;;;37.37;21.13;;;0.00;99.90;;;;;;5053372;28;20418;-67
2021/01/17 06:43:41;;;;;;;38.10;21.83;;;0.00;99.90;;;;;;5053195;28;20544;-68
2021/01/17 06:46:07;;;;;;;35.80;22.33;;;-0.10;99.90;;;;;;5053593;28;20985;-65
2021/01/17 06:48:33;;;;;;;31.00;18.07;;;-0.10;99.90;;;;;;5053720;28;20449;-65
2021/01/17 06:51:20;;;;;;;34.53;19.43;;;-0.10;99.90;;;;;;5052891;28;20453;-66
2021/01/17 06:53:53;;;;;;;35.47;20.43;;;-0.10;99.90;;;;;;5053161;28;20167;-66
2021/01/17 06:56:19;;;;;;;33.37;20.53;;;-0.10;99.90;;;;;;5053044;28;20413;-65
2021/01/17 06:58:46;;;;;;;36.33;20.77;;;-0.10;99.90;;;;;;5053317;28;20418;-68
2021/01/17 07:01:12;;;;;;;33.37;18.17;;;-0.10;99.90;;;;;;5051784;28;20217;-65
2021/01/17 07:03:49;;;;;;;38.77;20.60;;;-0.10;99.90;;;;;;5040691;28;20976;-65
2021/01/17 07:06:45;;;;;;;37.23;20.20;;;-0.10;99.90;;;;;;5052953;28;20453;-65
2021/01/17 07:09:25;;;;;;;35.67;19.20;;;0.00;99.90;;;;;;5052607;28;20453;-67
2021/01/17 07:12:24;;;;;;;34.57;20.00;;;0.00;99.90;;;;;;5052784;28;20500;-67
2021/01/17 07:15:23;;;;;;;34.47;20.17;;;0.00;99.90;;;;;;5035788;28;20419;-65
2021/01/17 07:17:53;;;;;;;33.57;20.77;;;0.10;99.90;;;;;;5052406;28;20422;-65
2021/01/17 07:20:23;;;;;;;35.37;19.63;;;0.00;99.90;;;;;;5052697;28;20806;-66
2021/01/17 07:22:51;;;;;;;38.63;21.97;;;0.10;99.90;;;;;;5052694;28;20418;-64
2021/01/17 07:25:21;;;;;;;37.40;20.53;;;0.10;99.90;;;;;;5051520;28;20491;-66
2021/01/17 07:28:10;;;;;;;36.17;20.67;;;0.10;99.90;;;;;;5048468;28;20505;-65
2021/01/17 07:30:36;;;;;;;36.03;21.50;;;0.10;99.90;;;;;;5052179;28;20923;-66
2021/01/17 07:33:06;;;;;;;39.33;20.47;;;0.10;99.90;;;;;;5052579;28;20417;-64
2021/01/17 07:35:37;;;;;;;39.73;21.53;;;0.10;99.90;;;;;;5052168;28;20185;-66
2021/01/17 07:38:14;;;;;;;45.00;21.03;;;0.10;99.90;;;;;;5052512;28;20421;-65
2021/01/17 07:40:51;;;;;;;44.40;20.80;;;0.10;99.90;;;;;;5052105;28;20497;-66
2021/01/17 07:43:28;;;;;;;42.27;20.43;;;0.10;99.90;;;;;;5035725;28;20515;-64
2021/01/17 07:45:56;;;;;;;41.17;21.53;;;0.20;99.90;;;;;;5031196;28;20978;-65
2021/01/17 07:48:22;;;;;;;29.90;18.73;;;0.30;99.90;;;;;;5032259;28;20497;-65
2021/01/17 07:50:55;;;;;;;33.13;19.40;;;0.30;99.90;;;;;;5032230;28;20963;-65
2021/01/17 07:53:36;;;;;;;32.93;17.80;;;0.30;99.90;;;;;;5031365;28;20191;-66
2021/01/17 07:56:13;;;;;;;29.80;17.00;;;0.30;99.90;;;;;;5031135;28;20510;-66
2021/01/17 07:58:47;;;;;;;33.40;17.70;;;0.30;99.90;;;;;;5031814;28;20425;-67
2021/01/17 08:01:31;;;;;;;34.03;18.67;;;0.40;99.90;;;;;;5031906;28;20454;-66
2021/01/17 08:04:17;;;;;;;30.13;17.57;;;0.40;99.90;;;;;;5030563;28;20742;-67
2021/01/17 08:06:43;;;;;;;30.57;17.57;;;0.40;99.90;;;;;;5031767;28;20450;-65
2021/01/17 08:09:10;;;;;;;37.80;19.60;;;0.40;99.90;;;;;;5031599;28;20415;-66
2021/01/17 08:11:46;;;;;;;33.50;18.90;;;0.40;99.90;;;;;;5031520;28;20238;-65
2021/01/17 08:14:26;;;;;;;31.63;18.97;;;0.40;99.90;;;;;;5031617;28;20538;-66
2021/01/17 08:17:10;;;;;;;35.60;16.97;;;0.40;99.90;;;;;;5031225;28;20417;-66
2021/01/17 08:20:00;;;;;;;32.87;17.40;;;0.40;99.90;;;;;;5031589;28;20407;-65
2021/01/17 08:22:25;;;;;;;33.27;17.83;;;0.40;99.90;;;;;;5031346;28;20418;-66
2021/01/17 08:24:55;;;;;;;31.80;17.97;;;0.50;99.90;;;;;;5030381;28;20499;-65
2021/01/17 08:27:34;;;;;;;34.27;18.93;;;0.40;99.90;;;;;;5031438;28;20241;-66
2021/01/17 08:32:38;;;;;;;28.47;17.50;;;0.50;99.90;;;;;;5031791;28;20414;-66
2021/01/17 08:35:18;;;;;;;28.60;15.67;;;0.50;99.90;;;;;;5030662;28;20516;-66
2021/01/17 08:37:51;;;;;;;25.47;15.93;;;0.50;99.90;;;;;;5030925;28;20517;-65
2021/01/17 08:40:29;;;;;;;30.33;15.57;;;0.50;99.90;;;;;;5030613;28;20731;-67
2021/01/17 08:42:57;;;;;;;26.03;15.73;;;0.60;99.90;;;;;;5031515;28;20418;-64
2021/01/17 08:45:22;;;;;;;30.40;16.17;;;0.60;99.90;;;;;;5025999;28;20466;-66
2021/01/17 08:47:52;;;;;;;25.03;15.03;;;0.60;99.90;;;;;;5051018;28;20425;-64
2021/01/17 08:50:35;;;;;;;24.33;15.10;;;0.70;99.90;;;;;;5051091;28;20170;-66
2021/01/17 08:53:10;;;;;;;25.10;14.80;;;0.80;99.90;;;;;;5037100;28;20415;-64
2021/01/17 08:55:43;;;;;;;22.93;14.53;;;0.90;99.90;;;;;;5049851;28;20417;-65
2021/01/17 08:58:15;;;;;;;27.03;13.50;;;0.90;99.90;;;;;;5051051;28;20815;-66
2021/01/17 09:00:55;;;;;;;24.50;14.30;;;0.90;99.90;;;;;;5050679;28;20754;-64
2021/01/17 09:03:42;;;;;;;20.23;13.33;;;1.00;99.90;;;;;;5051011;28;20813;-67
2021/01/17 09:06:08;;;;;;;21.10;11.63;;;1.10;99.90;;;;;;5035528;28;20523;-65
2021/01/17 09:08:34;;;;;;;20.47;13.03;;;1.10;99.90;;;;;;5049239;28;20418;-64
2021/01/17 09:11:01;;;;;;;21.90;12.63;;;1.10;99.90;;;;;;5048262;28;20187;-65
2021/01/17 09:13:31;;;;;;;21.23;12.03;;;1.20;99.90;;;;;;5050561;28;20409;-63
2021/01/17 09:16:06;;;;;;;24.83;15.43;;;1.20;99.90;;;;;;5050525;28;20449;-65
2021/01/17 09:18:38;;;;;;;23.70;14.27;;;1.20;99.90;;;;;;5050521;28;20804;-65
2021/01/17 09:21:07;;;;;;;26.10;14.50;;;1.20;99.90;;;;;;5049712;28;20437;-65
2021/01/17 09:23:38;;;;;;;22.30;13.87;;;1.20;99.90;;;;;;5031071;28;20409;-65
2021/01/17 09:26:05;;;;;;;27.53;15.10;;;1.30;99.90;;;;;;5050583;28;20464;-65
2021/01/17 09:28:31;;;;;;;22.73;14.00;;;1.30;99.90;;;;;;5050985;28;20467;-65
2021/01/17 09:31:02;;;;;;;24.43;12.47;;;1.20;99.90;;;;;;5050490;28;20895;-65
2021/01/17 09:33:29;;;;;;;21.80;14.00;;;1.30;99.90;;;;;;5050631;28;20441;-65
2021/01/17 09:35:55;;;;;;;23.93;13.57;;;1.30;99.90;;;;;;5033141;28;20765;-65
2021/01/17 09:38:24;;;;;;;19.90;12.77;;;1.40;99.90;;;;;;5050830;28;21500;-65
2021/01/17 09:40:56;;;;;;;25.17;13.60;;;1.50;99.90;;;;;;5050596;28;20500;-65
2021/01/17 09:43:22;;;;;;;22.83;13.87;;;1.40;99.90;;;;;;5046869;28;20443;-65
2021/01/17 09:45:53;;;;;;;22.33;14.17;;;1.50;99.90;;;;;;5036105;28;20861;-65
2021/01/17 09:48:23;;;;;;;23.57;13.63;;;1.60;99.90;;;;;;5050470;28;20175;-66
2021/01/17 09:50:50;;;;;;;21.00;12.23;;;1.60;99.90;;;;;;5050264;28;20414;-65
2021/01/17 09:53:16;;;;;;;22.07;13.37;;;1.70;99.90;;;;;;5050429;28;20421;-65
2021/01/17 09:55:43;;;;;;;20.67;13.30;;;1.80;99.90;;;;;;5050641;28;20775;-65
2021/01/17 09:58:11;;;;;;;20.57;12.90;;;1.70;99.90;;;;;;5050448;28;20815;-65
2021/01/17 10:00:38;;;;;;;20.13;13.90;;;1.70;99.90;;;;;;5050310;28;20746;-65
2021/01/17 10:03:15;;;;;;;23.30;13.47;;;1.60;99.90;;;;;;5050531;28;20429;-65
2021/01/17 10:05:42;;;;;;;25.30;15.70;;;1.60;99.90;;;;;;5050492;28;20468;-65
2021/01/17 10:08:10;;;;;;;25.20;15.00;;;1.50;99.90;;;;;;5050492;28;20450;-65
2021/01/17 10:10:37;;;;;;;25.63;15.40;;;1.50;99.90;;;;;;5050461;28;20923;-65
2021/01/17 10:13:03;;;;;;;26.33;15.37;;;1.50;99.90;;;;;;5050669;28;20425;-65
2021/01/17 10:15:29;;;;;;;25.00;15.33;;;1.50;99.90;;;;;;5050479;28;20922;-65
2021/01/17 10:17:55;;;;;;;26.20;15.97;;;1.50;99.90;;;;;;5050641;28;20410;-65
2021/01/17 10:20:31;;;;;;;24.70;15.40;;;1.50;99.90;;;;;;5050326;28;20663;-65
2021/01/17 10:22:57;;;;;;;25.00;15.20;;;1.60;99.90;;;;;;5032738;28;20175;-66
2021/01/17 10:25:23;;;;;;;23.70;15.53;;;1.70;99.90;;;;;;5049815;28;20488;-65
2021/01/17 10:27:49;;;;;;;24.37;15.83;;;1.70;99.90;;;;;;5050290;28;20410;-65
2021/01/17 10:30:19;;;;;;;23.57;14.43;;;1.80;99.90;;;;;;5050149;28;20895;-65
2021/01/17 10:32:45;;;;;;;25.73;15.57;;;2.00;99.90;;;;;;5049938;28;20425;-65
2021/01/17 10:35:11;;;;;;;22.47;14.50;;;2.10;99.90;;;;;;5052624;28;20410;-66
2021/01/17 10:37:38;;;;;;;21.57;14.37;;;2.20;99.90;;;;;;5053626;28;20205;-65
2021/01/17 10:40:05;;;;;;;21.77;13.60;;;2.20;99.90;;;;;;5053980;28;20422;-65
2021/01/17 10:42:32;;;;;;;22.97;14.27;;;2.30;99.90;;;;;;5053661;28;20923;-66
2021/01/17 10:45:07;;;;;;;23.40;14.87;;;2.20;99.90;;;;;;5047424;28;20529;-65
2021/01/17 10:47:51;;;;;;;22.17;12.47;;;2.30;99.90;;;;;;5053238;28;20413;-65
2021/01/17 10:50:20;;;;;;;21.37;13.47;;;2.30;99.90;;;;;;5053544;28;20492;-65
2021/01/17 10:53:10;;;;;;;23.80;15.67;;;2.20;99.90;;;;;;5043568;28;20473;-65
2021/01/17 10:55:37;;;;;;;29.10;18.57;;;2.20;99.90;;;;;;5052368;28;20424;-65
2021/01/17 10:58:12;;;;;;;31.87;18.33;;;2.10;99.90;;;;;;5053077;28;20422;-65
2021/01/17 11:00:37;;;;;;;26.87;15.57;;;2.00;99.90;;;;;;5053291;28;20977;-65
2021/01/17 11:03:06;;;;;;;27.03;14.27;;;2.00;99.90;;;;;;5053224;28;20405;-65
2021/01/17 11:05:32;;;;;;;31.87;16.50;;;2.00;99.90;;;;;;5053376;28;20194;-65
2021/01/17 11:07:59;;;;;;;28.50;17.50;;;2.00;99.90;;;;;;5053037;28;20460;-66
2021/01/17 11:10:25;;;;;;;28.93;17.17;;;2.00;99.90;;;;;;5053120;28;20417;-65
2021/01/17 11:12:51;;;;;;;12.03;7.53;;;2.00;99.90;;;;;;5052582;28;20410;-65
2021/01/17 11:15:20;;;;;;;28.23;15.97;;;2.10;99.90;;;;;;5053001;28;20421;-65
2021/01/17 11:17:54;;;;;;;27.17;16.77;;;2.10;99.90;;;;;;5052673;28;20176;-65
2021/01/17 11:20:28;;;;;;;25.43;15.63;;;2.00;99.90;;;;;;5035272;28;20420;-65
2021/01/17 11:23:00;;;;;;;24.30;14.60;;;2.20;99.90;;;;;;5052825;28;20436;-65
2021/01/17 11:25:25;;;;;;;24.33;14.47;;;2.20;99.90;;;;;;5052672;28;20953;-66
2021/01/17 11:27:56;;;;;;;24.10;15.27;;;2.30;99.90;;;;;;5035673;28;20406;-65
2021/01/17 11:30:25;;;;;;;23.33;14.80;;;2.50;99.90;;;;;;5032606;28;20259;-65
2021/01/17 11:32:51;;;;;;;23.73;15.73;;;2.60;99.90;;;;;;5033076;28;20446;-66
2021/01/17 11:35:25;;;;;;;22.43;14.27;;;2.70;99.90;;;;;;5051341;28;20828;-65
2021/01/17 11:37:57;;;;;;;23.93;15.03;;;2.70;99.90;;;;;;5052766;28;20445;-65
2021/01/17 11:40:23;;;;;;;24.47;15.60;;;2.70;99.90;;;;;;5052524;28;20417;-66
2021/01/17 11:42:49;;;;;;;23.13;15.13;;;2.70;99.90;;;;;;5052314;28;20424;-66
2021/01/17 11:45:18;;;;;;;26.17;16.60;;;2.80;99.90;;;;;;5029237;28;20218;-66
2021/01/17 11:47:45;;;;;;;27.17;16.77;;;2.80;99.90;;;;;;5052086;28;20171;-66
2021/01/17 11:50:18;;;;;;;26.13;16.10;;;2.80;99.90;;;;;;5052263;28;20406;-65
2021/01/17 11:52:58;;;;;;;27.53;17.70;;;2.80;99.90;;;;;;5052369;28;21006;-66
2021/01/17 11:55:24;;;;;;;28.87;17.90;;;2.80;99.90;;;;;;5051887;28;20433;-65
2021/01/17 11:58:05;;;;;;;27.23;16.90;;;2.80;99.90;;;;;;5052539;28;20425;-66
2021/01/17 12:00:30;;;;;;;26.87;17.57;;;2.80;99.90;;;;;;5052171;28;20413;-65
2021/01/17 12:02:57;;;;;;;31.47;19.40;;;2.70;99.90;;;;;;5052172;28;20910;-66
2021/01/17 12:05:23;;;;;;;27.43;16.97;;;2.80;99.90;;;;;;5051710;28;20212;-65
2021/01/17 12:07:59;;;;;;;28.13;17.80;;;2.80;99.90;;;;;;5051969;28;20500;-66
2021/01/17 12:10:25;;;;;;;29.20;18.30;;;2.80;99.90;;;;;;5052004;28;20244;-65
2021/01/17 12:12:50;;;;;;;26.07;17.53;;;2.90;99.90;;;;;;5051897;28;20888;-65
2021/01/17 12:15:16;;;;;;;26.73;15.10;;;2.80;99.90;;;;;;5051954;28;20261;-65
2021/01/17 12:17:41;;;;;;;28.83;18.60;;;2.80;99.90;;;;;;5051645;28;20574;-65
2021/01/17 12:20:09;;;;;;;27.30;18.00;;;2.80;99.90;;;;;;5051985;28;20274;-65
2021/01/17 12:22:34;;;;;;;29.23;18.27;;;2.80;99.90;;;;;;5051579;28;20214;-64
2021/01/17 12:25:00;;;;;;;26.10;16.33;;;2.80;99.90;;;;;;5033729;28;20508;-66
2021/01/17 12:27:26;;;;;;;27.97;16.50;;;2.70;99.90;;;;;;5051749;28;20198;-65
2021/01/17 12:29:51;;;;;;;26.43;16.83;;;2.70;99.90;;;;;;5051941;28;20175;-65
2021/01/17 12:32:17;;;;;;;27.67;17.23;;;2.70;99.90;;;;;;5051578;28;20262;-65
2021/01/17 12:34:42;;;;;;;28.70;16.40;;;2.70;99.90;;;;;;5051469;28;20233;-66
2021/01/17 12:37:08;;;;;;;27.87;17.17;;;2.70;99.90;;;;;;5051290;28;20175;-65
2021/01/17 12:39:33;;;;;;;29.33;16.40;;;2.60;99.90;;;;;;5051777;28;20183;-65
2021/01/17 12:41:59;;;;;;;31.80;18.97;;;2.60;99.90;;;;;;5051344;28;20182;-65
2021/01/17 12:44:28;;;;;;;25.67;14.90;;;2.60;99.90;;;;;;5051042;28;20211;-65
2021/01/17 12:46:53;;;;;;;27.80;18.07;;;2.60;99.90;;;;;;5051205;28;20198;-65